Time;durP1;ratioP1;P1;durP2;ratioP2;P2;SDS_P1;SDS_P2;PMS_P1;PMS_P2;Temp;Humidity;BMP_temperature;BMP_pressure;BME280_temperature;BME280_humidity;BME280_pressure;Samples;Min_cycle;Max_cycle;Signal;HPM_P1;HPM_P2
2022/03/08 00:00:39;;;;;;;19.80;15.27;;;;;;;;;;2057886;28;20174;-58
2022/03/08 00:01:39;;;;;;;17.17;13.67;;;;;;;;;;2066033;28;20244;-58
2022/03/08 00:02:39;;;;;;;20.47;14.03;;;;;;;;;;2066585;28;20269;-56
2022/03/08 00:03:39;;;;;;;16.13;13.50;;;;;;;;;;2067487;28;20174;-58
2022/03/08 00:04:40;;;;;;;15.77;13.40;;;;;;;;;;2065875;28;20600;-59
2022/03/08 00:05:40;;;;;;;18.57;14.23;;;;;;;;;;2056896;28;20205;-59
2022/03/08 00:06:41;;;;;;;16.67;12.43;;;;;;;;;;2057349;28;20163;-59
2022/03/08 00:07:41;;;;;;;16.60;13.13;;;;;;;;;;2065898;28;20182;-59
2022/03/08 00:08:42;;;;;;;19.10;13.50;;;;;;;;;;2065842;28;20182;-58
2022/03/08 00:09:44;;;;;;;17.97;14.10;;;;;;;;;;2065663;28;20170;-59
2022/03/08 00:10:44;;;;;;;16.47;13.23;;;;;;;;;;2065792;28;20423;-57
2022/03/08 00:11:44;;;;;;;16.23;13.17;;;;;;;;;;2065954;28;20189;-56
2022/03/08 00:12:48;;;;;;;17.27;13.87;;;;;;;;;;2065789;28;20178;-58
2022/03/08 00:13:51;;;;;;;15.40;13.13;;;;;;;;;;2065458;28;20177;-56
2022/03/08 00:14:51;;;;;;;15.03;12.90;;;;;;;;;;2059510;28;20428;-58
2022/03/08 00:15:51;;;;;;;19.90;14.57;;;;;;;;;;2064682;28;20978;-56
2022/03/08 00:16:52;;;;;;;16.47;13.00;;;;;;;;;;2065184;28;20654;-56
2022/03/08 00:17:53;;;;;;;16.03;13.27;;;;;;;;;;2064903;28;20692;-57
2022/03/08 00:18:53;;;;;;;19.50;14.00;;;;;;;;;;2065608;28;20588;-58
2022/03/08 00:19:54;;;;;;;15.70;13.53;;;;;;;;;;2064996;28;20415;-58
2022/03/08 00:20:54;;;;;;;17.30;13.93;;;;;;;;;;2064769;28;20202;-57
2022/03/08 00:21:55;;;;;;;15.30;13.37;;;;;;;;;;2065229;28;20185;-57
2022/03/08 00:22:55;;;;;;;17.30;13.50;;;;;;;;;;2063899;28;20181;-57
2022/03/08 00:23:55;;;;;;;16.43;13.23;;;;;;;;;;2056626;28;20205;-58
2022/03/08 00:24:56;;;;;;;16.13;12.70;;;;;;;;;;2056140;28;20180;-56
2022/03/08 00:25:56;;;;;;;15.80;13.77;;;;;;;;;;2065106;28;20267;-58
2022/03/08 00:26:56;;;;;;;16.00;13.83;;;;;;;;;;2065441;28;20174;-56
2022/03/08 00:27:56;;;;;;;18.20;14.23;;;;;;;;;;2055944;28;20679;-55
2022/03/08 00:28:57;;;;;;;20.77;14.20;;;;;;;;;;2049233;28;20227;-57
2022/03/08 00:29:58;;;;;;;16.27;13.77;;;;;;;;;;2049007;28;20514;-57
2022/03/08 00:30:58;;;;;;;16.10;14.20;;;;;;;;;;2047662;29;20617;-57
2022/03/08 00:31:59;;;;;;;15.93;13.10;;;;;;;;;;2047189;28;20277;-58
2022/03/08 00:33:01;;;;;;;19.00;15.37;;;;;;;;;;2058155;28;20194;-58
2022/03/08 00:34:01;;;;;;;19.77;14.40;;;;;;;;;;2064818;28;20431;-56
2022/03/08 00:35:03;;;;;;;25.63;15.30;;;;;;;;;;2065442;28;20170;-58
2022/03/08 00:36:04;;;;;;;18.60;13.87;;;;;;;;;;2064129;28;20459;-57
2022/03/08 00:37:04;;;;;;;18.33;15.37;;;;;;;;;;2065623;28;20181;-57
2022/03/08 00:38:05;;;;;;;20.60;15.07;;;;;;;;;;2064798;28;20170;-59
2022/03/08 00:39:06;;;;;;;20.63;14.53;;;;;;;;;;2065370;28;20667;-58
2022/03/08 00:40:08;;;;;;;18.27;14.70;;;;;;;;;;2065661;28;20669;-55
2022/03/08 00:41:08;;;;;;;17.17;13.43;;;;;;;;;;2065617;28;20485;-58
2022/03/08 00:42:12;;;;;;;22.20;15.20;;;;;;;;;;2065495;28;20423;-58
2022/03/08 00:43:12;;;;;;;19.03;15.17;;;;;;;;;;2054524;28;20612;-58
2022/03/08 00:44:12;;;;;;;18.03;14.60;;;;;;;;;;2056619;28;20412;-57
2022/03/08 00:45:13;;;;;;;17.33;14.07;;;;;;;;;;2065389;28;20182;-55
2022/03/08 00:46:15;;;;;;;20.67;15.27;;;;;;;;;;2065337;28;20236;-57
2022/03/08 00:47:15;;;;;;;18.17;14.23;;;;;;;;;;2065358;28;20173;-58
2022/03/08 00:48:16;;;;;;;20.90;15.57;;;;;;;;;;2056903;28;20458;-64
2022/03/08 00:49:16;;;;;;;16.80;13.83;;;;;;;;;;2056855;28;20209;-55
2022/03/08 00:50:18;;;;;;;16.83;13.90;;;;;;;;;;2064605;28;20178;-57
2022/03/08 00:51:18;;;;;;;18.97;14.33;;;;;;;;;;2057019;28;20173;-57
2022/03/08 00:52:19;;;;;;;18.60;14.77;;;;;;;;;;2064932;28;21052;-55
2022/03/08 00:53:19;;;;;;;16.93;14.53;;;;;;;;;;2065484;28;20180;-55
2022/03/08 00:54:19;;;;;;;19.63;15.20;;;;;;;;;;2065302;28;20626;-53
2022/03/08 00:55:21;;;;;;;18.87;15.50;;;;;;;;;;2056681;28;20202;-59
2022/03/08 00:56:23;;;;;;;18.93;15.57;;;;;;;;;;2057058;28;20440;-55
2022/03/08 00:57:24;;;;;;;20.57;15.23;;;;;;;;;;2064288;28;20991;-56
2022/03/08 00:58:24;;;;;;;18.20;15.07;;;;;;;;;;2064900;28;20662;-57
2022/03/08 00:59:25;;;;;;;18.93;15.00;;;;;;;;;;2056585;28;20730;-58
2022/03/08 01:00:26;;;;;;;20.03;14.80;;;;;;;;;;2056747;28;20170;-58
2022/03/08 01:01:26;;;;;;;24.43;15.53;;;;;;;;;;2048906;28;20262;-58
2022/03/08 01:02:27;;;;;;;19.17;15.00;;;;;;;;;;2048559;29;20852;-55
2022/03/08 01:03:28;;;;;;;18.30;14.87;;;;;;;;;;2056373;28;20682;-57
2022/03/08 01:04:29;;;;;;;18.73;14.87;;;;;;;;;;2048688;28;20492;-57
2022/03/08 01:05:30;;;;;;;21.37;15.37;;;;;;;;;;2056306;28;20190;-59
2022/03/08 01:06:31;;;;;;;19.47;15.47;;;;;;;;;;2056324;28;20186;-58
2022/03/08 01:07:31;;;;;;;17.70;14.83;;;;;;;;;;2056059;28;20408;-56
2022/03/08 01:08:31;;;;;;;18.37;14.37;;;;;;;;;;2065165;28;20231;-57
2022/03/08 01:09:32;;;;;;;22.30;15.93;;;;;;;;;;2064824;28;20642;-55
2022/03/08 01:10:32;;;;;;;17.13;14.03;;;;;;;;;;2064717;28;20185;-56
2022/03/08 01:11:32;;;;;;;18.60;14.20;;;;;;;;;;2063217;28;20177;-56
2022/03/08 01:12:33;;;;;;;20.20;15.33;;;;;;;;;;2056656;28;20182;-57
2022/03/08 01:13:33;;;;;;;20.17;14.40;;;;;;;;;;2050919;28;20187;-57
2022/03/08 01:14:34;;;;;;;22.27;14.70;;;;;;;;;;2070026;28;20180;-57
2022/03/08 01:15:37;;;;;;;18.03;14.10;;;;;;;;;;2040495;29;20211;-57
2022/03/08 01:16:37;;;;;;;18.97;15.53;;;;;;;;;;2041633;28;20426;-59
2022/03/08 01:17:38;;;;;;;18.73;14.70;;;;;;;;;;2064399;28;20208;-58
2022/03/08 01:18:38;;;;;;;24.07;15.60;;;;;;;;;;2065066;28;20182;-58
2022/03/08 01:19:38;;;;;;;19.40;14.93;;;;;;;;;;2055780;28;20166;-57
2022/03/08 01:20:38;;;;;;;22.30;16.03;;;;;;;;;;2056628;28;20217;-58
2022/03/08 01:21:39;;;;;;;20.00;15.43;;;;;;;;;;2064904;28;20181;-57
2022/03/08 01:22:39;;;;;;;18.73;14.97;;;;;;;;;;2064846;28;20173;-56
2022/03/08 01:23:40;;;;;;;20.87;15.00;;;;;;;;;;2065131;28;20268;-58
2022/03/08 01:24:40;;;;;;;18.90;15.40;;;;;;;;;;2050399;28;20205;-57
2022/03/08 01:25:41;;;;;;;19.47;14.30;;;;;;;;;;2055957;28;20643;-54
2022/03/08 01:26:41;;;;;;;24.43;15.57;;;;;;;;;;2064180;28;20191;-54
2022/03/08 01:27:42;;;;;;;17.27;14.70;;;;;;;;;;2050018;28;20679;-59
2022/03/08 01:28:42;;;;;;;20.20;14.63;;;;;;;;;;2055988;28;20174;-56
2022/03/08 01:29:43;;;;;;;19.50;15.13;;;;;;;;;;2064472;28;20205;-56
2022/03/08 01:30:44;;;;;;;19.93;14.20;;;;;;;;;;2055973;28;20420;-54
2022/03/08 01:31:44;;;;;;;20.17;14.53;;;;;;;;;;2051063;28;20194;-56
2022/03/08 01:32:44;;;;;;;20.90;15.83;;;;;;;;;;2064295;28;20201;-57
2022/03/08 01:33:49;;;;;;;19.47;15.50;;;;;;;;;;2054670;28;20255;-56
2022/03/08 01:34:51;;;;;;;20.70;15.13;;;;;;;;;;2052546;28;20490;-56
2022/03/08 01:35:51;;;;;;;21.67;15.97;;;;;;;;;;2066128;28;20458;-57
2022/03/08 01:36:52;;;;;;;18.27;14.97;;;;;;;;;;2066825;28;20177;-55
2022/03/08 01:37:52;;;;;;;18.23;14.50;;;;;;;;;;2065920;28;20737;-53
2022/03/08 01:38:53;;;;;;;20.77;15.73;;;;;;;;;;2057877;28;20182;-59
2022/03/08 01:39:53;;;;;;;20.97;15.47;;;;;;;;;;2056207;28;20345;-59
2022/03/08 01:40:53;;;;;;;21.70;15.97;;;;;;;;;;2066091;28;20196;-57
2022/03/08 01:41:54;;;;;;;22.00;16.20;;;;;;;;;;2066641;28;20202;-58
2022/03/08 01:42:54;;;;;;;18.33;14.87;;;;;;;;;;2065956;28;20196;-57
2022/03/08 01:43:54;;;;;;;19.30;15.53;;;;;;;;;;2064135;28;20269;-59
2022/03/08 01:44:55;;;;;;;23.43;16.33;;;;;;;;;;2066541;28;20192;-57
2022/03/08 01:45:56;;;;;;;19.97;15.87;;;;;;;;;;2057387;28;20193;-57
2022/03/08 01:46:57;;;;;;;20.90;16.87;;;;;;;;;;2050154;28;20457;-55
2022/03/08 01:47:57;;;;;;;23.00;17.30;;;;;;;;;;2057496;28;20170;-56
2022/03/08 01:48:57;;;;;;;20.20;15.57;;;;;;;;;;2065196;28;20196;-57
2022/03/08 01:49:57;;;;;;;20.90;16.00;;;;;;;;;;2057617;28;20174;-58
2022/03/08 01:50:58;;;;;;;20.50;15.80;;;;;;;;;;2050146;29;20179;-56
2022/03/08 01:51:59;;;;;;;21.20;15.50;;;;;;;;;;2058057;28;20595;-56
2022/03/08 01:52:59;;;;;;;21.07;16.53;;;;;;;;;;2057358;28;20686;-57
2022/03/08 01:53:59;;;;;;;20.90;15.87;;;;;;;;;;2053164;28;20194;-56
2022/03/08 01:55:00;;;;;;;22.00;16.47;;;;;;;;;;2066254;28;20188;-59
2022/03/08 01:56:00;;;;;;;23.10;16.87;;;;;;;;;;2066677;28;20190;-57
2022/03/08 01:57:00;;;;;;;19.47;15.80;;;;;;;;;;2066516;28;20194;-56
2022/03/08 01:58:00;;;;;;;22.07;17.27;;;;;;;;;;2066440;28;20336;-56
2022/03/08 01:59:01;;;;;;;22.37;15.87;;;;;;;;;;2055712;28;20241;-54
2022/03/08 02:00:03;;;;;;;20.03;16.07;;;;;;;;;;2053548;28;20182;-54
2022/03/08 02:01:12;;;;;;;21.10;16.70;;;;;;;;;;2066215;28;20206;-56
2022/03/08 02:02:12;;;;;;;20.60;15.67;;;;;;;;;;2066098;28;20434;-55
2022/03/08 02:03:13;;;;;;;20.40;15.17;;;;;;;;;;2066073;28;20522;-58
2022/03/08 02:04:13;;;;;;;19.10;15.47;;;;;;;;;;2065811;28;20580;-53
2022/03/08 02:05:13;;;;;;;20.73;15.70;;;;;;;;;;2066276;28;20181;-59
2022/03/08 02:06:13;;;;;;;22.10;15.97;;;;;;;;;;2065899;28;20201;-57
2022/03/08 02:07:14;;;;;;;20.57;15.57;;;;;;;;;;2065661;28;20178;-57
2022/03/08 02:08:14;;;;;;;23.27;17.23;;;;;;;;;;2066505;28;20182;-57
2022/03/08 02:09:14;;;;;;;22.60;16.17;;;;;;;;;;2065768;28;20276;-57
2022/03/08 02:10:15;;;;;;;22.23;16.90;;;;;;;;;;2065992;28;20268;-57
2022/03/08 02:11:16;;;;;;;18.10;15.67;;;;;;;;;;2066453;28;20182;-57
2022/03/08 02:12:16;;;;;;;23.00;17.53;;;;;;;;;;2058072;28;20254;-57
2022/03/08 02:13:16;;;;;;;18.40;15.73;;;;;;;;;;2058169;28;20174;-54
2022/03/08 02:14:16;;;;;;;22.17;16.30;;;;;;;;;;2061069;28;20186;-57
2022/03/08 02:15:21;;;;;;;22.93;17.83;;;;;;;;;;2059349;28;20215;-59
2022/03/08 02:16:21;;;;;;;23.23;17.80;;;;;;;;;;2065631;28;20225;-57
2022/03/08 02:17:22;;;;;;;21.93;16.67;;;;;;;;;;2066316;28;20399;-55
2022/03/08 02:18:22;;;;;;;26.10;17.67;;;;;;;;;;2065580;28;20188;-55
2022/03/08 02:19:22;;;;;;;21.73;16.73;;;;;;;;;;2066190;28;20173;-58
2022/03/08 02:20:22;;;;;;;26.87;17.33;;;;;;;;;;2065163;28;20193;-54
2022/03/08 02:21:23;;;;;;;24.53;17.77;;;;;;;;;;2065469;28;20641;-55
2022/03/08 02:22:23;;;;;;;21.97;16.83;;;;;;;;;;2065955;28;20181;-56
2022/03/08 02:23:23;;;;;;;23.47;16.47;;;;;;;;;;2066098;28;20178;-54
2022/03/08 02:24:24;;;;;;;25.67;18.23;;;;;;;;;;2056458;28;20177;-57
2022/03/08 02:25:24;;;;;;;23.87;17.97;;;;;;;;;;2057488;28;20176;-55
2022/03/08 02:26:25;;;;;;;26.80;18.30;;;;;;;;;;2065957;28;20189;-55
2022/03/08 02:27:26;;;;;;;23.37;17.17;;;;;;;;;;2066296;28;20174;-53
2022/03/08 02:28:27;;;;;;;23.47;17.00;;;;;;;;;;2057235;28;20435;-57
2022/03/08 02:29:27;;;;;;;22.37;17.50;;;;;;;;;;2057225;28;20197;-55
2022/03/08 02:30:28;;;;;;;25.27;17.93;;;;;;;;;;2065824;28;20851;-58
2022/03/08 02:31:28;;;;;;;23.30;17.93;;;;;;;;;;2065757;28;20181;-56
2022/03/08 02:32:28;;;;;;;22.83;18.80;;;;;;;;;;2066073;28;20189;-54
2022/03/08 02:33:29;;;;;;;27.27;17.87;;;;;;;;;;2065830;28;20192;-56
2022/03/08 02:34:29;;;;;;;25.47;17.83;;;;;;;;;;2064975;28;20650;-56
2022/03/08 02:35:30;;;;;;;21.57;17.83;;;;;;;;;;2065982;28;20185;-55
2022/03/08 02:36:30;;;;;;;24.23;18.27;;;;;;;;;;2055901;28;20181;-57
2022/03/08 02:37:37;;;;;;;23.20;17.70;;;;;;;;;;2056544;28;20538;-56
2022/03/08 02:38:38;;;;;;;26.87;18.90;;;;;;;;;;2060911;28;20391;-55
2022/03/08 02:39:38;;;;;;;22.73;17.20;;;;;;;;;;2064774;28;20485;-58
2022/03/08 02:40:40;;;;;;;23.43;18.43;;;;;;;;;;2065997;28;20673;-56
2022/03/08 02:41:40;;;;;;;27.90;18.60;;;;;;;;;;2065547;28;20188;-54
2022/03/08 02:42:41;;;;;;;24.23;18.47;;;;;;;;;;2057212;28;20409;-54
2022/03/08 02:43:41;;;;;;;24.63;18.43;;;;;;;;;;2058024;28;20248;-56
2022/03/08 02:44:42;;;;;;;24.23;17.67;;;;;;;;;;2066571;28;20173;-56
2022/03/08 02:45:42;;;;;;;22.10;17.33;;;;;;;;;;2056080;28;20557;-55
2022/03/08 02:46:42;;;;;;;23.93;17.33;;;;;;;;;;2056728;28;20246;-57
2022/03/08 02:47:43;;;;;;;25.73;18.10;;;;;;;;;;2065174;28;20190;-56
2022/03/08 02:48:43;;;;;;;25.23;18.53;;;;;;;;;;2049913;29;20183;-57
2022/03/08 02:49:43;;;;;;;22.77;18.57;;;;;;;;;;2043040;29;20182;-57
2022/03/08 02:50:44;;;;;;;24.77;19.00;;;;;;;;;;2066073;28;20229;-53
2022/03/08 02:51:44;;;;;;;23.63;18.67;;;;;;;;;;2065670;28;20587;-53
2022/03/08 02:52:45;;;;;;;25.07;17.87;;;;;;;;;;2066194;28;20237;-56
2022/03/08 02:53:45;;;;;;;24.50;18.43;;;;;;;;;;2065966;28;20213;-55
2022/03/08 02:54:46;;;;;;;25.23;18.63;;;;;;;;;;2065729;28;20430;-55
2022/03/08 02:55:46;;;;;;;24.30;18.30;;;;;;;;;;2065891;28;20259;-55
2022/03/08 02:56:46;;;;;;;23.87;18.33;;;;;;;;;;2066455;28;20176;-57
2022/03/08 02:57:47;;;;;;;25.43;18.57;;;;;;;;;;2066022;28;20213;-55
2022/03/08 02:58:47;;;;;;;25.17;18.50;;;;;;;;;;2066258;28;20201;-58
2022/03/08 02:59:48;;;;;;;22.20;18.73;;;;;;;;;;2065923;28;20186;-57
2022/03/08 03:00:48;;;;;;;27.70;18.27;;;;;;;;;;2066392;28;20165;-56
2022/03/08 03:01:48;;;;;;;23.17;17.73;;;;;;;;;;2060433;28;20183;-55
2022/03/08 03:02:49;;;;;;;27.23;19.33;;;;;;;;;;2065573;28;20232;-54
2022/03/08 03:03:49;;;;;;;24.57;18.23;;;;;;;;;;2065343;28;20174;-57
2022/03/08 03:04:49;;;;;;;26.43;18.33;;;;;;;;;;2065152;28;20180;-55
2022/03/08 03:05:50;;;;;;;24.97;18.90;;;;;;;;;;2066045;28;20709;-57
2022/03/08 03:06:50;;;;;;;25.00;19.10;;;;;;;;;;2065758;28;20180;-54
2022/03/08 03:07:51;;;;;;;23.67;18.17;;;;;;;;;;2066521;28;20173;-55
2022/03/08 03:08:51;;;;;;;23.53;17.57;;;;;;;;;;2066048;28;20178;-52
2022/03/08 03:09:51;;;;;;;22.87;18.53;;;;;;;;;;2058037;28;20179;-58
2022/03/08 03:10:51;;;;;;;22.90;18.00;;;;;;;;;;2055992;28;20244;-55
2022/03/08 03:11:51;;;;;;;22.37;17.37;;;;;;;;;;2060840;28;20195;-55
2022/03/08 03:12:53;;;;;;;21.97;17.07;;;;;;;;;;2065985;28;20680;-54
2022/03/08 03:13:53;;;;;;;24.27;18.63;;;;;;;;;;2066029;28;20189;-54
2022/03/08 03:14:53;;;;;;;26.07;19.20;;;;;;;;;;2056461;28;20487;-57
2022/03/08 03:15:53;;;;;;;26.50;18.97;;;;;;;;;;2057676;28;20743;-56
2022/03/08 03:16:53;;;;;;;24.33;18.20;;;;;;;;;;2061771;28;20186;-58
2022/03/08 03:17:54;;;;;;;26.37;17.57;;;;;;;;;;2066493;28;20344;-55
2022/03/08 03:18:54;;;;;;;24.40;17.63;;;;;;;;;;2066288;28;20180;-56
2022/03/08 03:19:55;;;;;;;22.43;18.93;;;;;;;;;;2067337;28;20182;-57
2022/03/08 03:20:55;;;;;;;25.40;19.40;;;;;;;;;;2066284;28;20205;-59
2022/03/08 03:21:55;;;;;;;26.50;19.67;;;;;;;;;;2066679;28;20165;-54
2022/03/08 03:22:56;;;;;;;25.23;19.67;;;;;;;;;;2065965;28;20177;-56
2022/03/08 03:23:56;;;;;;;22.37;18.17;;;;;;;;;;2065780;28;20181;-56
2022/03/08 03:24:56;;;;;;;24.33;18.87;;;;;;;;;;2065797;28;20174;-57
2022/03/08 03:25:56;;;;;;;26.93;19.50;;;;;;;;;;2058677;28;20186;-57
2022/03/08 03:26:57;;;;;;;30.77;20.53;;;;;;;;;;2057301;28;20233;-54
2022/03/08 03:27:57;;;;;;;27.43;19.97;;;;;;;;;;2066284;28;20200;-57
2022/03/08 03:28:57;;;;;;;35.90;21.97;;;;;;;;;;2066028;28;20182;-56
2022/03/08 03:29:58;;;;;;;28.80;20.60;;;;;;;;;;2066138;28;20181;-56
2022/03/08 03:30:58;;;;;;;25.93;20.00;;;;;;;;;;2065957;28;20471;-57
2022/03/08 03:31:58;;;;;;;26.93;20.07;;;;;;;;;;2067084;28;20188;-53
2022/03/08 03:32:59;;;;;;;27.10;20.00;;;;;;;;;;2055243;28;20204;-54
2022/03/08 03:33:59;;;;;;;26.40;19.67;;;;;;;;;;2057619;28;20655;-59
2022/03/08 03:35:00;;;;;;;27.03;19.97;;;;;;;;;;2066060;28;20229;-55
2022/03/08 03:36:00;;;;;;;30.30;21.40;;;;;;;;;;2065808;28;20574;-58
2022/03/08 03:37:00;;;;;;;28.57;19.93;;;;;;;;;;2066303;28;20442;-58
2022/03/08 03:38:01;;;;;;;30.57;21.10;;;;;;;;;;2065736;28;20846;-56
2022/03/08 03:39:02;;;;;;;26.93;20.40;;;;;;;;;;2066073;28;20590;-56
2022/03/08 03:40:06;;;;;;;27.47;21.77;;;;;;;;;;2065849;28;20173;-57
2022/03/08 03:41:06;;;;;;;30.37;22.00;;;;;;;;;;2066115;28;20428;-61
2022/03/08 03:42:07;;;;;;;28.80;21.07;;;;;;;;;;2066051;28;20445;-56
2022/03/08 03:43:07;;;;;;;28.63;21.93;;;;;;;;;;2065980;28;20229;-57
2022/03/08 03:44:08;;;;;;;32.50;21.77;;;;;;;;;;2065856;28;20177;-57
2022/03/08 03:45:08;;;;;;;27.90;20.87;;;;;;;;;;2067007;28;20260;-57
2022/03/08 03:46:09;;;;;;;27.43;21.17;;;;;;;;;;2064312;28;20210;-57
2022/03/08 03:47:10;;;;;;;28.80;20.33;;;;;;;;;;2058953;28;20174;-57
2022/03/08 03:48:10;;;;;;;27.03;20.10;;;;;;;;;;2050937;29;20855;-57
2022/03/08 03:49:10;;;;;;;28.77;20.90;;;;;;;;;;2058787;28;20204;-56
2022/03/08 03:50:11;;;;;;;27.00;20.20;;;;;;;;;;2058116;28;20210;-54
2022/03/08 03:51:11;;;;;;;29.30;21.10;;;;;;;;;;2066443;28;20630;-54
2022/03/08 03:52:11;;;;;;;30.23;20.00;;;;;;;;;;2066210;28;20173;-56
2022/03/08 03:53:12;;;;;;;30.93;21.77;;;;;;;;;;2067525;28;20190;-56
2022/03/08 03:54:12;;;;;;;30.37;22.27;;;;;;;;;;2066844;28;20272;-55
2022/03/08 03:55:13;;;;;;;31.50;22.07;;;;;;;;;;2067907;28;20187;-55
2022/03/08 03:56:13;;;;;;;27.73;22.33;;;;;;;;;;2067348;28;20205;-55
2022/03/08 03:57:14;;;;;;;35.37;23.57;;;;;;;;;;2058083;28;20511;-56
2022/03/08 03:58:14;;;;;;;32.00;23.73;;;;;;;;;;2056078;28;20896;-55
2022/03/08 03:59:14;;;;;;;33.13;22.80;;;;;;;;;;2067117;28;20179;-55
2022/03/08 04:00:15;;;;;;;33.70;24.37;;;;;;;;;;2067913;28;20174;-56
2022/03/08 04:01:16;;;;;;;38.53;27.93;;;;;;;;;;2059678;28;20189;-55
2022/03/08 04:02:16;;;;;;;44.60;31.50;;;;;;;;;;2058947;28;20201;-56
2022/03/08 04:03:18;;;;;;;43.93;33.13;;;;;;;;;;2066997;28;20532;-55
2022/03/08 04:04:19;;;;;;;46.83;34.20;;;;;;;;;;2066946;28;20291;-54
2022/03/08 04:05:19;;;;;;;46.83;34.03;;;;;;;;;;2056490;28;20825;-57
2022/03/08 04:06:19;;;;;;;47.30;33.43;;;;;;;;;;2065566;23;20218;-60
2022/03/08 04:07:19;;;;;;;46.97;34.07;;;;;;;;;;2063256;28;20182;-60
2022/03/08 04:08:20;;;;;;;44.80;32.67;;;;;;;;;;2065843;28;20193;-64
2022/03/08 04:09:20;;;;;;;45.60;32.80;;;;;;;;;;2065829;28;20166;-59
2022/03/08 04:10:21;;;;;;;46.80;32.83;;;;;;;;;;2058793;28;20286;-63
2022/03/08 04:11:21;;;;;;;43.50;32.60;;;;;;;;;;2055693;28;20190;-60
2022/03/08 04:12:21;;;;;;;43.70;31.53;;;;;;;;;;2055608;28;20245;-63
2022/03/08 04:13:21;;;;;;;43.77;32.03;;;;;;;;;;2056812;28;20198;-59
2022/03/08 04:14:22;;;;;;;41.63;31.53;;;;;;;;;;2047684;29;20226;-62
2022/03/08 04:15:22;;;;;;;42.97;31.97;;;;;;;;;;2053840;28;20218;-63
2022/03/08 04:16:22;;;;;;;39.53;31.30;;;;;;;;;;2061770;28;20190;-63
2022/03/08 04:17:23;;;;;;;39.90;31.37;;;;;;;;;;2063897;28;20170;-62
2022/03/08 04:18:23;;;;;;;39.07;28.90;;;;;;;;;;2065268;28;20411;-62
2022/03/08 04:19:23;;;;;;;38.03;27.93;;;;;;;;;;2065104;28;20202;-63
2022/03/08 04:20:23;;;;;;;39.47;28.13;;;;;;;;;;2065292;28;20170;-63
2022/03/08 04:21:24;;;;;;;35.17;27.47;;;;;;;;;;2056980;28;20647;-61
2022/03/08 04:22:24;;;;;;;40.53;29.20;;;;;;;;;;2055261;28;20685;-61
2022/03/08 04:23:24;;;;;;;39.33;28.43;;;;;;;;;;2057620;28;20197;-63
2022/03/08 04:24:25;;;;;;;39.67;28.87;;;;;;;;;;2051505;28;20182;-62
2022/03/08 04:25:26;;;;;;;40.37;27.73;;;;;;;;;;2048338;28;20524;-61
2022/03/08 04:26:26;;;;;;;40.30;27.63;;;;;;;;;;2044392;28;20560;-62
2022/03/08 04:27:26;;;;;;;36.67;26.33;;;;;;;;;;2047074;28;20170;-62
2022/03/08 04:28:27;;;;;;;37.23;26.80;;;;;;;;;;2056658;28;20194;-62
2022/03/08 04:29:27;;;;;;;36.60;27.10;;;;;;;;;;2063693;28;20184;-60
2022/03/08 04:30:27;;;;;;;34.40;25.83;;;;;;;;;;2065401;28;20269;-61
2022/03/08 04:31:28;;;;;;;34.83;24.67;;;;;;;;;;2063877;28;20281;-61
2022/03/08 04:32:28;;;;;;;36.87;26.63;;;;;;;;;;2065164;28;20177;-64
2022/03/08 04:33:28;;;;;;;36.43;25.07;;;;;;;;;;2061160;28;20182;-63
2022/03/08 04:34:28;;;;;;;32.63;25.07;;;;;;;;;;2053684;28;20182;-64
2022/03/08 04:35:29;;;;;;;37.13;26.50;;;;;;;;;;2057230;28;20206;-62
2022/03/08 04:36:29;;;;;;;36.37;27.03;;;;;;;;;;2047941;29;20257;-62
2022/03/08 04:37:29;;;;;;;37.57;25.50;;;;;;;;;;2048433;28;20174;-63
2022/03/08 04:38:29;;;;;;;32.17;24.87;;;;;;;;;;2059760;28;20166;-63
2022/03/08 04:39:30;;;;;;;35.67;26.20;;;;;;;;;;2064115;28;20178;-62
2022/03/08 04:40:30;;;;;;;32.97;24.80;;;;;;;;;;2064465;28;20186;-60
2022/03/08 04:41:30;;;;;;;33.23;25.33;;;;;;;;;;2065125;28;20272;-62
2022/03/08 04:42:31;;;;;;;34.23;25.87;;;;;;;;;;2059111;28;20225;-58
2022/03/08 04:43:31;;;;;;;32.63;24.30;;;;;;;;;;2065310;28;20173;-63
2022/03/08 04:44:32;;;;;;;32.77;23.33;;;;;;;;;;2060740;28;20190;-61
2022/03/08 04:45:32;;;;;;;32.83;23.50;;;;;;;;;;2065774;28;20173;-62
2022/03/08 04:46:32;;;;;;;35.20;24.70;;;;;;;;;;2060424;28;20194;-61
2022/03/08 04:47:35;;;;;;;35.20;24.47;;;;;;;;;;2066050;28;20188;-62
2022/03/08 04:48:35;;;;;;;35.30;23.20;;;;;;;;;;2058051;28;20280;-63
2022/03/08 04:49:36;;;;;;;30.43;23.37;;;;;;;;;;2060444;28;20415;-62
2022/03/08 04:50:37;;;;;;;34.30;24.00;;;;;;;;;;2057009;28;20685;-65
2022/03/08 04:51:37;;;;;;;33.10;24.43;;;;;;;;;;2064284;28;20181;-62
2022/03/08 04:52:37;;;;;;;33.00;23.87;;;;;;;;;;2056850;28;20280;-61
2022/03/08 04:53:39;;;;;;;30.93;23.60;;;;;;;;;;2048208;28;20241;-62
2022/03/08 04:54:39;;;;;;;28.43;22.10;;;;;;;;;;2047429;28;20179;-62
2022/03/08 04:55:39;;;;;;;31.73;22.77;;;;;;;;;;2056662;28;20460;-60
2022/03/08 04:56:42;;;;;;;32.00;22.70;;;;;;;;;;2049797;28;20238;-62
2022/03/08 04:57:42;;;;;;;30.03;23.40;;;;;;;;;;2053763;28;20584;-61
2022/03/08 04:58:42;;;;;;;34.87;24.20;;;;;;;;;;2056714;28;20253;-61
2022/03/08 04:59:43;;;;;;;32.87;22.20;;;;;;;;;;2048164;29;20636;-61
2022/03/08 05:00:43;;;;;;;35.13;23.50;;;;;;;;;;2058022;28;20169;-62
2022/03/08 05:01:44;;;;;;;31.07;23.30;;;;;;;;;;2060528;28;20177;-62
2022/03/08 05:02:45;;;;;;;31.77;23.77;;;;;;;;;;2054722;28;20245;-59
2022/03/08 05:03:45;;;;;;;31.20;22.57;;;;;;;;;;2065279;28;20462;-62
2022/03/08 05:04:45;;;;;;;32.70;23.00;;;;;;;;;;2061709;28;20194;-63
2022/03/08 05:05:46;;;;;;;31.20;23.73;;;;;;;;;;2064513;28;20275;-61
2022/03/08 05:06:47;;;;;;;32.37;23.27;;;;;;;;;;2062120;28;20687;-61
2022/03/08 05:07:47;;;;;;;34.50;24.07;;;;;;;;;;2055434;28;20174;-62
2022/03/08 05:08:47;;;;;;;34.10;23.07;;;;;;;;;;2059021;28;20193;-62
2022/03/08 05:09:47;;;;;;;34.77;24.37;;;;;;;;;;2061860;28;20178;-63
2022/03/08 05:10:48;;;;;;;37.33;24.33;;;;;;;;;;2064931;28;20173;-63
2022/03/08 05:11:48;;;;;;;33.67;24.43;;;;;;;;;;2064984;28;20217;-56
2022/03/08 05:12:48;;;;;;;31.23;23.93;;;;;;;;;;2049661;28;20187;-63
2022/03/08 05:13:49;;;;;;;38.67;25.23;;;;;;;;;;2047972;28;20888;-62
2022/03/08 05:14:49;;;;;;;30.87;24.53;;;;;;;;;;2056345;28;20170;-61
2022/03/08 05:15:50;;;;;;;34.40;24.87;;;;;;;;;;2064524;28;20556;-62
2022/03/08 05:16:51;;;;;;;36.60;23.87;;;;;;;;;;2059788;28;20202;-61
2022/03/08 05:17:51;;;;;;;31.67;23.67;;;;;;;;;;2064111;28;20208;-61
2022/03/08 05:18:51;;;;;;;33.63;25.20;;;;;;;;;;2053502;28;20426;-59
2022/03/08 05:19:52;;;;;;;33.43;23.03;;;;;;;;;;2057960;28;20722;-58
2022/03/08 05:20:52;;;;;;;37.37;24.03;;;;;;;;;;2056131;28;20170;-62
2022/03/08 05:21:52;;;;;;;35.60;24.13;;;;;;;;;;2056475;28;20209;-61
2022/03/08 05:22:53;;;;;;;29.43;22.70;;;;;;;;;;2061637;28;20284;-61
2022/03/08 05:23:53;;;;;;;33.23;24.37;;;;;;;;;;2065164;28;20161;-61
2022/03/08 05:24:53;;;;;;;36.03;25.57;;;;;;;;;;2064742;28;20165;-61
2022/03/08 05:25:54;;;;;;;35.27;24.10;;;;;;;;;;2065189;28;20200;-61
2022/03/08 05:26:54;;;;;;;35.33;24.27;;;;;;;;;;2062904;28;20189;-64
2022/03/08 05:27:54;;;;;;;35.77;24.77;;;;;;;;;;2064733;28;20268;-62
2022/03/08 05:28:54;;;;;;;32.87;24.60;;;;;;;;;;2062341;28;20178;-60
2022/03/08 05:29:55;;;;;;;37.17;26.53;;;;;;;;;;2058642;28;20195;-61
2022/03/08 05:30:55;;;;;;;32.40;23.57;;;;;;;;;;2061308;28;20182;-61
2022/03/08 05:31:55;;;;;;;34.93;25.60;;;;;;;;;;2064086;28;20181;-61
2022/03/08 05:32:56;;;;;;;35.43;24.80;;;;;;;;;;2064938;28;20209;-61
2022/03/08 05:33:56;;;;;;;33.50;24.20;;;;;;;;;;2058885;28;20922;-62
2022/03/08 05:34:57;;;;;;;37.23;25.10;;;;;;;;;;2055971;28;20218;-60
2022/03/08 05:35:57;;;;;;;35.60;24.53;;;;;;;;;;2064837;28;20182;-63
2022/03/08 05:36:57;;;;;;;33.97;24.50;;;;;;;;;;2055913;28;20234;-63
2022/03/08 05:37:57;;;;;;;34.07;25.17;;;;;;;;;;2044056;28;20213;-60
2022/03/08 05:38:58;;;;;;;33.97;24.27;;;;;;;;;;2058965;28;20235;-61
2022/03/08 05:39:58;;;;;;;36.93;24.70;;;;;;;;;;2055714;28;20666;-60
2022/03/08 05:40:59;;;;;;;40.00;25.77;;;;;;;;;;2058155;28;20181;-60
2022/03/08 05:42:00;;;;;;;41.20;27.27;;;;;;;;;;2060418;28;20273;-59
2022/03/08 05:43:01;;;;;;;39.47;27.70;;;;;;;;;;2064485;28;20450;-62
2022/03/08 05:44:01;;;;;;;39.60;27.87;;;;;;;;;;2055622;28;20174;-60
2022/03/08 05:45:02;;;;;;;35.93;26.93;;;;;;;;;;2056327;28;20827;-63
2022/03/08 05:46:02;;;;;;;42.27;27.93;;;;;;;;;;2063506;28;20182;-62
2022/03/08 05:47:03;;;;;;;36.83;26.47;;;;;;;;;;2064734;28;20184;-59
2022/03/08 05:48:03;;;;;;;42.33;28.47;;;;;;;;;;2057264;28;20721;-60
2022/03/08 05:49:03;;;;;;;37.73;26.90;;;;;;;;;;2048357;28;20191;-63
2022/03/08 05:50:05;;;;;;;41.33;28.30;;;;;;;;;;2047684;29;20655;-59
2022/03/08 05:51:05;;;;;;;39.13;28.00;;;;;;;;;;2056525;28;20576;-61
2022/03/08 05:52:06;;;;;;;38.67;28.03;;;;;;;;;;2064237;28;20431;-63